Time;durP1;ratioP1;P1;durP2;ratioP2;P2;SDS_P1;SDS_P2;PMS_P1;PMS_P2;Temp;Humidity;BMP_temperature;BMP_pressure;BME280_temperature;BME280_humidity;BME280_pressure;Samples;Min_cycle;Max_cycle;Signal;HPM_P1;HPM_P2
2022/10/17 00:00:25;;;;;;;;;;;;;;;-142.75;100.00;76958.09;5072507;28;19916;-68
2022/10/17 00:02:50;;;;;;;;;;;;;;;-142.75;100.00;76973.84;5072400;28;19924;-69
2022/10/17 00:05:15;;;;;;;;;;;;;;;-142.75;100.00;76962.03;5054480;28;19978;-68
2022/10/17 00:07:41;;;;;;;;;;;;;;;-142.75;100.00;76956.13;5072026;28;20370;-68
2022/10/17 00:10:06;;;;;;;;;;;;;;;-142.75;100.00;76954.16;5072133;28;19923;-68
2022/10/17 00:12:32;;;;;;;;;;;;;;;-142.75;100.00;76958.09;5072161;28;19999;-68
2022/10/17 00:14:57;;;;;;;;;;;;;;;-142.75;100.00;76960.06;5072363;28;19977;-68
2022/10/17 00:17:22;;;;;;;;;;;;;;;-142.75;100.00;76960.06;5054533;28;20008;-68
2022/10/17 00:19:47;;;;;;;;;;;;;;;-142.75;100.00;76958.09;5052182;28;19917;-68
2022/10/17 00:22:13;;;;;;;;;;;;;;;-142.75;100.00;76973.84;5053029;28;19968;-67
2022/10/17 00:24:38;;;;;;;;;;;;;;;-142.75;100.00;76975.81;5052148;28;20357;-68
2022/10/17 00:27:03;;;;;;;;;;;;;;;-142.75;100.00;76985.66;5051676;28;20446;-68
2022/10/17 00:29:28;;;;;;;;;;;;;;;-142.75;100.00;76971.88;5071803;28;19931;-67
2022/10/17 00:31:54;;;;;;;;;;;;;;;-142.75;100.00;76967.94;5054003;28;19916;-68
2022/10/17 00:34:20;;;;;;;;;;;;;;;-142.75;100.00;76975.81;5069008;28;19925;-69
2022/10/17 00:36:45;;;;;;;;;;;;;;;-142.75;100.00;76975.81;5051473;28;19924;-68
2022/10/17 00:39:10;;;;;;;;;;;;;;;-142.75;100.00;76979.75;5051748;28;19917;-68
2022/10/17 00:41:35;;;;;;;;;;;;;;;-142.75;100.00;76967.94;5051677;28;20354;-68
2022/10/17 00:44:02;;;;;;;;;;;;;;;-142.75;100.00;76965.97;5051685;28;19934;-67
2022/10/17 00:46:29;;;;;;;;;;;;;;;-142.75;100.00;76965.97;5033697;28;19917;-67
2022/10/17 00:48:55;;;;;;;;;;;;;;;-142.75;100.00;76967.94;5050761;28;19924;-68
2022/10/17 00:51:24;;;;;;;;;;;;;;;-142.75;100.00;76965.97;5051329;28;20382;-69
2022/10/17 00:53:50;;;;;;;;;;;;;;;-142.75;100.00;76975.81;5051437;28;19939;-68
2022/10/17 00:56:16;;;;;;;;;;;;;;;-142.75;100.00;76971.88;5051562;28;20298;-68
2022/10/17 00:58:42;;;;;;;;;;;;;;;-142.75;100.00;76967.94;5051159;28;20390;-68
2022/10/17 01:01:07;;;;;;;;;;;;;;;-142.75;100.00;76964.00;5033528;28;20016;-69
2022/10/17 01:03:32;;;;;;;;;;;;;;;-142.75;100.00;76965.97;5051360;28;19944;-68
2022/10/17 01:05:57;;;;;;;;;;;;;;;-142.75;100.00;76965.97;5051357;28;20003;-68
2022/10/17 01:08:23;;;;;;;;;;;;;;;-142.75;100.00;76964.00;5051016;28;19923;-68
2022/10/17 01:10:55;;;;;;;;;;;;;;;-142.75;100.00;76965.97;5033324;28;20012;-68
2022/10/17 01:13:24;;;;;;;;;;;;;;;-142.75;100.00;76960.06;5051359;28;19955;-68
2022/10/17 01:15:49;;;;;;;;;;;;;;;-142.75;100.00;76960.06;5055431;28;19974;-68
2022/10/17 01:18:28;;;;;;;;;;;;;;;-142.75;100.00;76956.13;5050934;28;20294;-68
2022/10/17 01:20:56;;;;;;;;;;;;;;;-142.75;100.00;76950.22;5051230;28;19939;-68
2022/10/17 01:23:27;;;;;;;;;;;;;;;-142.75;100.00;76958.09;5050844;28;19920;-68
2022/10/17 01:26:02;;;;;;;;;;;;;;;-142.75;100.00;76952.19;5051086;28;20337;-68
2022/10/17 01:28:47;;;;;;;;;;;;;;;-142.75;100.00;76948.25;5051678;28;19917;-68
2022/10/17 01:31:13;;;;;;;;;;;;;;;-142.75;100.00;76952.19;5071208;28;21228;-68
2022/10/17 01:33:54;;;;;;;;;;;;;;;-142.75;100.00;76952.19;5071043;28;19916;-68
2022/10/17 01:36:22;;;;;;;;;;;;;;;-142.75;100.00;76956.13;5071061;28;19920;-68
2022/10/17 01:38:49;;;;;;;;;;;;;;;-142.75;100.00;76956.13;5070639;28;19917;-68
2022/10/17 01:41:43;;;;;;;;;;;;;;;-142.75;100.00;76962.03;5070884;28;20034;-68
2022/10/17 01:44:20;;;;;;;;;;;;;;;-142.75;100.00;76956.13;4998896;28;19926;-68
2022/10/17 01:46:49;;;;;;;;;;;;;;;-142.75;100.00;76946.28;5070652;28;20459;-68
2022/10/17 01:49:17;;;;;;;;;;;;;;;-142.75;100.00;76948.25;5070717;28;19917;-68
2022/10/17 01:51:48;;;;;;;;;;;;;;;-142.75;100.00;76936.44;5070870;28;20480;-68
2022/10/17 01:54:17;;;;;;;;;;;;;;;-142.75;100.00;76932.50;5070843;28;20015;-68
2022/10/17 01:56:43;;;;;;;;;;;;;;;-142.75;100.00;76932.50;5070482;28;19920;-68
2022/10/17 01:59:13;;;;;;;;;;;;;;;-142.75;100.00;76942.34;5052760;28;19963;-68
2022/10/17 02:01:41;;;;;;;;;;;;;;;-142.75;100.00;76928.56;5073403;28;19924;-68
2022/10/17 02:04:07;;;;;;;;;;;;;;;-142.75;100.00;76928.56;5056825;28;19916;-68
2022/10/17 02:06:33;;;;;;;;;;;;;;;-142.75;100.00;76924.63;5065751;28;19920;-66
2022/10/17 02:08:58;;;;;;;;;;;;;;;-142.75;100.00;76920.69;5067118;28;20018;-68
2022/10/17 02:11:24;;;;;;;;;;;;;;;-142.75;100.00;76916.75;5052031;28;20019;-68
2022/10/17 02:14:08;;;;;;;;;;;;;;;-142.75;100.00;76920.69;5054619;28;19932;-68
2022/10/17 02:16:45;;;;;;;;;;;;;;;-142.75;100.00;76910.84;5073838;28;19982;-67
2022/10/17 02:19:13;;;;;;;;;;;;;;;-142.75;100.00;76920.69;5074387;28;19916;-68
2022/10/17 02:22:08;;;;;;;;;;;;;;;-142.75;100.00;76908.88;5074169;28;19990;-68
2022/10/17 02:24:51;;;;;;;;;;;;;;;-142.75;100.00;76893.13;5002295;28;20439;-68
2022/10/17 02:27:19;;;;;;;;;;;;;;;-142.75;100.00;76889.19;5074093;28;19923;-68
2022/10/17 02:29:44;;;;;;;;;;;;;;;-142.75;100.00;76904.94;5074091;28;20309;-68
2022/10/17 02:32:15;;;;;;;;;;;;;;;-142.75;100.00;76897.06;5074025;28;19954;-68
2022/10/17 02:34:49;;;;;;;;;;;;;;;-142.75;100.00;76893.13;5056245;28;19916;-68
2022/10/17 02:37:17;;;;;;;;;;;;;;;-142.75;100.00;76904.94;5073754;28;19961;-68
2022/10/17 02:39:43;;;;;;;;;;;;;;;-142.75;100.00;76914.78;5073994;28;19916;-68
2022/10/17 02:42:09;;;;;;;;;;;;;;;-142.75;100.00;76899.03;5055965;28;19927;-68
2022/10/17 02:44:36;;;;;;;;;;;;;;;-142.75;100.00;76897.06;5055963;28;19923;-68
2022/10/17 02:47:20;;;;;;;;;;;;;;;-142.75;100.00;76889.19;5055645;28;19924;-68
2022/10/17 02:49:49;;;;;;;;;;;;;;;-142.75;100.00;76893.13;5073932;28;19917;-68
2022/10/17 02:52:23;;;;;;;;;;;;;;;-142.75;100.00;76902.97;5073815;28;20374;-68
2022/10/17 02:54:56;;;;;;;;;;;;;;;-142.75;100.00;76891.16;5055913;28;19920;-68
2022/10/17 02:57:22;;;;;;;;;;;;;;;-142.75;100.00;76885.25;5073392;28;19978;-68
2022/10/17 02:59:47;;;;;;;;;;;;;;;-142.75;100.00;76873.44;5055664;28;19917;-66
2022/10/17 03:02:13;;;;;;;;;;;;;;;-142.75;100.00;76865.56;5073588;28;20011;-68
2022/10/17 03:04:41;;;;;;;;;;;;;;;-142.75;100.00;76845.88;5073527;28;19924;-68
2022/10/17 03:07:06;;;;;;;;;;;;;;;-142.75;100.00;76832.09;5073303;28;19931;-68
2022/10/17 03:09:31;;;;;;;;;;;;;;;-142.75;100.00;76814.38;5062051;28;20370;-68
2022/10/17 03:11:56;;;;;;;;;;;;;;;-142.75;100.00;76804.53;5052831;28;19923;-68
2022/10/17 03:14:22;;;;;;;;;;;;;;;-142.75;100.00;76806.50;5035357;28;19917;-68
2022/10/17 03:16:47;;;;;;;;;;;;;;;-142.75;100.00;76792.75;5053095;28;19917;-68
2022/10/17 03:19:12;;;;;;;;;;;;;;;-142.75;100.00;76784.88;5053217;28;19924;-68
2022/10/17 03:21:37;;;;;;;;;;;;;;;-142.75;100.00;76771.09;5035361;28;19928;-68
2022/10/17 03:24:03;;;;;;;;;;;;;;;-142.75;100.00;76771.09;5053225;28;20013;-67
2022/10/17 03:26:28;;;;;;;;;;;;;;;-142.75;100.00;76775.03;5035148;28;19917;-67
2022/10/17 03:28:54;;;;;;;;;;;;;;;-142.75;100.00;76761.25;5034946;28;20342;-67
2022/10/17 03:31:19;;;;;;;;;;;;;;;-142.75;100.00;76749.44;5053125;28;20478;-68
2022/10/17 03:33:44;;;;;;;;;;;;;;;-142.75;100.00;76753.38;5053099;28;19916;-68
2022/10/17 03:36:10;;;;;;;;;;;;;;;-142.75;100.00;76755.34;5052996;28;19967;-68
2022/10/17 03:38:36;;;;;;;;;;;;;;;-142.75;100.00;76735.66;5052820;28;19967;-68
2022/10/17 03:41:02;;;;;;;;;;;;;;;-142.75;100.00;76751.41;5052837;28;19967;-68
2022/10/17 03:43:27;;;;;;;;;;;;;;;-142.75;100.00;76731.72;5053579;28;19974;-68
2022/10/17 03:45:52;;;;;;;;;;;;;;;-142.75;100.00;76737.63;5054962;28;19924;-68
2022/10/17 03:48:18;;;;;;;;;;;;;;;-142.75;100.00;76723.84;5072445;28;19924;-68
2022/10/17 03:50:43;;;;;;;;;;;;;;;-142.75;100.00;76719.91;5055173;28;19917;-68
2022/10/17 03:53:08;;;;;;;;;;;;;;;-142.75;100.00;76731.72;5072628;28;19931;-67
2022/10/17 03:55:33;;;;;;;;;;;;;;;-142.75;100.00;76741.56;5072575;28;19916;-68
2022/10/17 03:57:59;;;;;;;;;;;;;;;-142.75;100.00;76747.47;5072387;28;19924;-68
2022/10/17 04:00:24;;;;;;;;;;;;;;;-142.75;100.00;76743.53;5072404;28;19916;-68
2022/10/17 04:02:50;;;;;;;;;;;;;;;-142.75;100.00;76735.66;5054519;28;20453;-68
2022/10/17 04:05:15;;;;;;;;;;;;;;;-142.75;100.00;76723.84;5072381;28;20394;-68
2022/10/17 04:07:40;;;;;;;;;;;;;;;-142.75;100.00;76723.84;5072200;28;19920;-68
2022/10/17 04:10:05;;;;;;;;;;;;;;;-142.75;100.00;76725.81;5054176;28;19966;-68
2022/10/17 04:12:31;;;;;;;;;;;;;;;-142.75;100.00;76737.63;5054398;28;19959;-68
2022/10/17 04:14:56;;;;;;;;;;;;;;;-142.75;100.00;76725.81;5072345;28;19924;-67
2022/10/17 04:17:21;;;;;;;;;;;;;;;-142.75;100.00;76719.91;5071799;28;19952;-68
2022/10/17 04:19:47;;;;;;;;;;;;;;;-142.75;100.00;76712.03;5072155;28;19916;-68
2022/10/17 04:22:13;;;;;;;;;;;;;;;-142.75;100.00;76710.06;5071981;28;19921;-68
2022/10/17 04:24:38;;;;;;;;;;;;;;;-142.75;100.00;76715.97;5070994;28;19969;-68
2022/10/17 04:27:03;;;;;;;;;;;;;;;-142.75;100.00;76721.88;5071871;28;19956;-68
2022/10/17 04:29:28;;;;;;;;;;;;;;;-142.75;100.00;76725.81;5071786;28;20255;-68
2022/10/17 04:31:54;;;;;;;;;;;;;;;-142.75;100.00;76725.81;5071948;28;19935;-69
2022/10/17 04:34:20;;;;;;;;;;;;;;;-142.75;100.00;76725.81;5071943;28;19920;-68
2022/10/17 04:36:46;;;;;;;;;;;;;;;-142.75;100.00;76727.78;5042790;28;19924;-67
2022/10/17 04:39:11;;;;;;;;;;;;;;;-142.75;100.00;76715.97;5053837;28;19924;-67
2022/10/17 04:41:36;;;;;;;;;;;;;;;-142.75;100.00;76725.81;5065202;28;20402;-68
2022/10/17 04:44:01;;;;;;;;;;;;;;;-142.75;100.00;76712.03;5051837;28;20529;-67
2022/10/17 04:46:26;;;;;;;;;;;;;;;-142.75;100.00;76712.03;5051623;28;19925;-68
2022/10/17 04:48:52;;;;;;;;;;;;;;;-142.75;100.00;76721.88;5051421;28;19929;-67
2022/10/17 04:51:17;;;;;;;;;;;;;;;-142.75;100.00;76712.03;5051536;28;20303;-68
2022/10/17 04:53:43;;;;;;;;;;;;;;;-142.75;100.00;76702.19;5051554;28;19921;-67
2022/10/17 04:56:10;;;;;;;;;;;;;;;-142.75;100.00;76698.25;5033555;28;19920;-68
2022/10/17 04:58:35;;;;;;;;;;;;;;;-142.75;100.00;76704.16;5033453;28;19917;-68
2022/10/17 05:01:08;;;;;;;;;;;;;;;-142.75;100.00;76702.19;5051338;28;20018;-68
2022/10/17 05:03:34;;;;;;;;;;;;;;;-142.75;100.00;76684.47;5051431;28;20334;-68
2022/10/17 05:06:02;;;;;;;;;;;;;;;-142.75;100.00;76686.44;5051446;28;20020;-67
2022/10/17 05:08:27;;;;;;;;;;;;;;;-142.75;100.00;76692.34;5033154;28;19917;-67
2022/10/17 05:10:53;;;;;;;;;;;;;;;-142.75;100.00;76704.16;5033301;28;19965;-67
2022/10/17 05:13:18;;;;;;;;;;;;;;;-142.75;100.00;76690.38;5033476;28;19965;-68
2022/10/17 05:15:43;;;;;;;;;;;;;;;-142.75;100.00;76696.28;5033689;28;19916;-67
2022/10/17 05:18:08;;;;;;;;;;;;;;;-142.75;100.00;76694.31;5050851;28;20294;-68
2022/10/17 05:20:33;;;;;;;;;;;;;;;-142.75;100.00;76680.53;5033299;28;20393;-67
2022/10/17 05:22:59;;;;;;;;;;;;;;;-142.75;100.00;76672.66;5051017;28;19932;-68
2022/10/17 05:25:24;;;;;;;;;;;;;;;-142.75;100.00;76676.59;5051141;28;19921;-68
2022/10/17 05:27:50;;;;;;;;;;;;;;;-142.75;100.00;76670.69;5066776;28;19925;-68
2022/10/17 05:30:15;;;;;;;;;;;;;;;-142.75;100.00;76662.81;5101938;22;19931;-66
2022/10/17 05:32:40;;;;;;;;;;;;;;;-142.75;100.00;76664.78;5097512;28;19994;-66
2022/10/17 05:35:05;;;;;;;;;;;;;;;-142.75;100.00;76668.72;5091655;28;19922;-66
2022/10/17 05:37:31;;;;;;;;;;;;;;;-142.75;100.00;76674.63;5092055;28;19923;-66
2022/10/17 05:39:56;;;;;;;;;;;;;;;-142.75;100.00;76672.66;5084855;28;20374;-65
2022/10/17 05:42:21;;;;;;;;;;;;;;;-142.75;100.00;76680.53;5077042;28;19981;-66
2022/10/17 05:44:47;;;;;;;;;;;;;;;-142.75;100.00;76682.50;5070926;28;19931;-66
2022/10/17 05:47:12;;;;;;;;;;;;;;;-142.75;100.00;76684.47;5070612;28;20003;-66
2022/10/17 05:49:37;;;;;;;;;;;;;;;-142.75;100.00;76680.53;5070833;28;19971;-66
2022/10/17 05:52:02;;;;;;;;;;;;;;;-142.75;100.00;76682.50;5070807;28;19956;-66
2022/10/17 05:54:27;;;;;;;;;;;;;;;-142.75;100.00;76680.53;5069541;28;19920;-66
2022/10/17 05:56:53;;;;;;;;;;;;;;;-142.75;100.00;76676.59;5070615;28;20000;-66
2022/10/17 05:59:19;;;;;;;;;;;;;;;-142.75;100.00;76674.63;5070744;28;20385;-66
2022/10/17 06:01:44;;;;;;;;;;;;;;;-142.75;100.00;76690.38;5070971;28;19927;-66
2022/10/17 06:04:09;;;;;;;;;;;;;;;-142.75;100.00;76692.34;5071661;28;19994;-66
2022/10/17 06:06:35;;;;;;;;;;;;;;;-142.75;100.00;76698.25;5071169;28;20337;-66
2022/10/17 06:09:00;;;;;;;;;;;;;;;-142.75;100.00;76708.09;5072019;28;20003;-66
2022/10/17 06:11:25;;;;;;;;;;;;;;;-142.75;100.00;76717.94;5069983;28;19916;-66
2022/10/17 06:13:51;;;;;;;;;;;;;;;-142.75;100.00;76712.03;5071560;28;20019;-67
2022/10/17 06:16:16;;;;;;;;;;;;;;;-142.75;100.00;76706.13;5070392;28;20337;-66
2022/10/17 06:18:41;;;;;;;;;;;;;;;-142.75;100.00;76710.06;5071156;28;19920;-66
2022/10/17 06:21:07;;;;;;;;;;;;;;;-142.75;100.00;76708.09;5070540;28;19947;-66
2022/10/17 06:23:33;;;;;;;;;;;;;;;-142.75;100.00;76694.31;5069646;28;19927;-66
2022/10/17 06:25:59;;;;;;;;;;;;;;;-142.75;100.00;76688.41;5070414;28;20002;-66
2022/10/17 06:28:24;;;;;;;;;;;;;;;-142.75;100.00;76686.44;5071258;28;20006;-65
2022/10/17 06:30:49;;;;;;;;;;;;;;;-142.75;100.00;76678.56;5069926;28;20357;-66
2022/10/17 06:33:15;;;;;;;;;;;;;;;-142.75;100.00;76674.63;5071234;28;19917;-66
2022/10/17 06:35:40;;;;;;;;;;;;;;;-142.75;100.00;76686.44;5070348;28;20625;-66
2022/10/17 06:38:05;;;;;;;;;;;;;;;-142.75;100.00;76678.56;5071009;28;19923;-66
2022/10/17 06:40:31;;;;;;;;;;;;;;;-142.75;100.00;76680.53;5074225;28;19962;-66
2022/10/17 06:42:56;;;;;;;;;;;;;;;-142.75;100.00;76674.63;5070300;28;20389;-66
2022/10/17 06:45:21;;;;;;;;;;;;;;;-142.75;100.00;76672.66;5071625;28;19963;-66
2022/10/17 06:47:48;;;;;;;;;;;;;;;-142.75;100.00;76662.81;5070763;28;20397;-66
2022/10/17 06:50:13;;;;;;;;;;;;;;;-142.75;100.00;76654.94;5076274;28;20403;-66
2022/10/17 06:52:38;;;;;;;;;;;;;;;-142.75;100.00;76651.00;5073616;28;20013;-65
2022/10/17 06:55:03;;;;;;;;;;;;;;;-142.75;100.00;76662.81;5075255;28;20006;-66
2022/10/17 06:57:29;;;;;;;;;;;;;;;-142.75;100.00;76666.75;5072753;28;19916;-66
2022/10/17 06:59:54;;;;;;;;;;;;;;;-142.75;100.00;76666.75;5074222;28;20017;-65
2022/10/17 07:02:20;;;;;;;;;;;;;;;-142.75;100.00;76686.44;5073208;28;19924;-65
2022/10/17 07:04:46;;;;;;;;;;;;;;;-142.75;100.00;76696.28;5073614;28;20378;-65
2022/10/17 07:07:11;;;;;;;;;;;;;;;-142.75;100.00;76700.22;5071677;28;19916;-66
2022/10/17 07:09:36;;;;;;;;;;;;;;;-142.75;100.00;76694.31;5073180;28;19931;-65
2022/10/17 07:12:02;;;;;;;;;;;;;;;-142.75;100.00;76688.41;5072934;28;20293;-66
2022/10/17 07:14:30;;;;;;;;;;;;;;;-142.75;100.00;76696.28;5074819;28;19920;-66
2022/10/17 07:16:56;;;;;;;;;;;;;;;-142.75;100.00;76708.09;5073903;28;19916;-66
2022/10/17 07:19:21;;;;;;;;;;;;;;;-142.75;100.00;76723.84;5073760;28;20267;-66
2022/10/17 07:21:47;;;;;;;;;;;;;;;-142.75;100.00;76721.88;5072405;28;19931;-66
2022/10/17 07:24:13;;;;;;;;;;;;;;;-142.75;100.00;76735.66;5075481;28;19922;-65
2022/10/17 07:26:38;;;;;;;;;;;;;;;-142.75;100.00;76753.38;5073287;28;19920;-66
2022/10/17 07:29:05;;;;;;;;;;;;;;;-142.75;100.00;76771.09;5073234;28;19924;-65
2022/10/17 07:31:30;;;;;;;;;;;;;;;-142.75;100.00;76792.75;5073587;28;20373;-65
2022/10/17 07:33:55;;;;;;;;;;;;;;;-142.75;100.00;76796.69;5073624;28;19977;-65
2022/10/17 07:36:20;;;;;;;;;;;;;;;-142.75;100.00;76806.50;5073247;28;19916;-65
2022/10/17 07:38:45;;;;;;;;;;;;;;;-142.75;100.00;76806.50;5073520;28;19924;-65
2022/10/17 07:41:11;;;;;;;;;;;;;;;-142.75;100.00;76806.50;5074030;28;19948;-66
2022/10/17 07:43:37;;;;;;;;;;;;;;;-142.75;100.00;76832.09;5076643;28;19966;-65
2022/10/17 07:46:04;;;;;;;;;;;;;;;-142.75;100.00;76847.84;5075366;28;19924;-65
2022/10/17 07:48:29;;;;;;;;;;;;;;;-142.75;100.00;76849.81;5072630;28;19916;-65
2022/10/17 07:50:54;;;;;;;;;;;;;;;-142.75;100.00;76863.59;5073923;28;20374;-65
2022/10/17 07:53:20;;;;;;;;;;;;;;;-142.75;100.00;76849.81;5076595;28;19916;-64
2022/10/17 07:55:46;;;;;;;;;;;;;;;-142.75;100.00;76851.78;5071156;28;19916;-66
2022/10/17 07:58:12;;;;;;;;;;;;;;;-142.75;100.00;76845.88;5073808;28;20417;-65
2022/10/17 08:00:38;;;;;;;;;;;;;;;-142.75;100.00;76834.06;5075608;28;19920;-66
2022/10/17 08:03:03;;;;;;;;;;;;;;;-142.75;100.00;76828.16;5073373;28;19966;-66
2022/10/17 08:05:29;;;;;;;;;;;;;;;-142.75;100.00;76826.19;5073010;28;20053;-66
2022/10/17 08:07:54;;;;;;;;;;;;;;;-142.75;100.00;76832.09;5072095;28;19928;-66
2022/10/17 08:10:20;;;;;;;;;;;;;;;-142.75;100.00;76826.19;5072301;28;19916;-66
2022/10/17 08:12:45;;;;;;;;;;;;;;;-142.75;100.00;76830.13;5072370;28;19924;-66
2022/10/17 08:15:11;;;;;;;;;;;;;;;-142.75;100.00;76838.00;5072295;28;19959;-65
2022/10/17 08:17:37;;;;;;;;;;;;;;;-142.75;100.00;76838.00;5072029;28;20003;-66
2022/10/17 08:20:03;;;;;;;;;;;;;;;-142.75;100.00;76826.19;5071993;28;19924;-66
2022/10/17 08:22:28;;;;;;;;;;;;;;;-142.75;100.00;76814.38;5075066;28;19920;-65
2022/10/17 08:24:53;;;;;;;;;;;;;;;-142.75;100.00;76818.31;5081469;28;19916;-65
2022/10/17 08:27:27;;;;;;;;;;;;;;;-142.75;100.00;76824.22;5080094;28;19916;-65
2022/10/17 08:29:53;;;;;;;;;;;;;;;-142.75;100.00;76810.44;5082644;28;19916;-66
2022/10/17 08:32:23;;;;;;;;;;;;;;;-142.75;100.00;76810.44;5083398;28;19993;-66
2022/10/17 08:34:49;;;;;;;;;;;;;;;-142.75;100.00;76790.78;5071547;28;19924;-66
2022/10/17 08:37:14;;;;;;;;;;;;;;;-142.75;100.00;76804.53;5073942;28;19932;-65
2022/10/17 08:39:40;;;;;;;;;;;;;;;-142.75;100.00;76773.06;5070154;28;19973;-65
2022/10/17 08:42:20;;;;;;;;;;;;;;;-142.75;100.00;76775.03;5075075;28;19920;-66
2022/10/17 08:44:55;;;;;;;;;;;;;;;-142.75;100.00;76784.88;5073893;28;19916;-66
2022/10/17 08:47:41;;;;;;;;;;;;;;;-142.75;100.00;76775.03;5080865;28;19920;-66
2022/10/17 08:50:10;;;;;;;;;;;;;;;-142.75;100.00;76777.00;5080724;28;19917;-66
2022/10/17 08:52:42;;;;;;;;;;;;;;;-142.75;100.00;76788.81;5082832;28;19979;-66
2022/10/17 08:55:14;;;;;;;;;;;;;;;-142.75;100.00;76786.84;5079148;28;19920;-66
2022/10/17 08:57:39;;;;;;;;;;;;;;;-142.75;100.00;76806.50;5086250;28;19916;-66
2022/10/17 09:00:11;;;;;;;;;;;;;;;-142.75;100.00;76814.38;5077380;28;20403;-67
2022/10/17 09:02:47;;;;;;;;;;;;;;;-142.75;100.00;76834.06;5077709;28;19983;-66
2022/10/17 09:05:31;;;;;;;;;;;;;;;-142.75;100.00;76832.09;5073935;28;20386;-65
2022/10/17 09:08:23;;;;;;;;;;;;;;;-142.75;100.00;76818.31;5072899;28;20665;-66
2022/10/17 09:10:48;;;;;;;;;;;;;;;-142.75;100.00;76806.50;5057014;28;19920;-65
2022/10/17 09:13:20;;;;;;;;;;;;;;;-142.75;100.00;76798.66;5074313;28;19938;-67
2022/10/17 09:15:46;;;;;;;;;;;;;;;-142.75;100.00;76800.63;5070352;28;20098;-66
2022/10/17 09:18:14;;;;;;;;;;;;;;;-142.75;100.00;76804.53;5075570;28;20412;-66
2022/10/17 09:20:45;;;;;;;;;;;;;;;-142.75;100.00;76798.66;5074366;28;19998;-66
2022/10/17 09:23:24;;;;;;;;;;;;;;;-142.75;100.00;76788.81;5071193;28;19974;-65
2022/10/17 09:25:52;;;;;;;;;;;;;;;-142.75;100.00;76790.78;5090863;28;19947;-66
2022/10/17 09:28:20;;;;;;;;;;;;;;;-142.75;100.00;76778.97;5080714;28;19923;-66
2022/10/17 09:30:47;;;;;;;;;;;;;;;-142.75;100.00;76786.84;5069298;28;19924;-65
2022/10/17 09:33:17;;;;;;;;;;;;;;;-142.75;100.00;76790.78;5079892;28;19924;-65
2022/10/17 09:35:43;;;;;;;;;;;;;;;-142.75;100.00;76798.66;5076634;28;20689;-65
2022/10/17 09:38:16;;;;;;;;;;;;;;;-142.75;100.00;76802.56;5076216;28;19920;-65
2022/10/17 09:40:42;;;;;;;;;;;;;;;-142.75;100.00;76814.38;5068373;28;20556;-66
2022/10/17 09:43:10;;;;;;;;;;;;;;;-142.75;100.00;76822.25;5071775;28;20163;-65
2022/10/17 09:45:46;;;;;;;;;;;;;;;-142.75;100.00;76839.97;5081154;28;19955;-65
2022/10/17 09:48:20;;;;;;;;;;;;;;;-142.75;100.00;76838.00;5074752;28;19923;-65
2022/10/17 09:50:46;;;;;;;;;;;;;;;-142.75;100.00;76834.06;5076331;28;19916;-66
2022/10/17 09:53:13;;;;;;;;;;;;;;;-142.75;100.00;76832.09;5079321;28;19984;-66
2022/10/17 09:55:41;;;;;;;;;;;;;;;-142.75;100.00;76857.69;5077802;28;20381;-66
2022/10/17 09:58:07;;;;;;;;;;;;;;;-142.75;100.00;76859.66;5068210;28;19928;-66
2022/10/17 10:00:34;;;;;;;;;;;;;;;-142.75;100.00;76849.81;5076223;28;19920;-66
2022/10/17 10:03:08;;;;;;;;;;;;;;;-142.75;100.00;76875.41;5068498;28;19955;-65
2022/10/17 10:05:34;;;;;;;;;;;;;;;-142.75;100.00;76871.47;5082328;28;20340;-65
2022/10/17 10:08:01;;;;;;;;;;;;;;;-142.75;100.00;76875.41;5066521;28;19917;-66
2022/10/17 10:10:27;;;;;;;;;;;;;;;-142.75;100.00;76877.38;5066942;28;19920;-66
2022/10/17 10:13:04;;;;;;;;;;;;;;;-142.75;100.00;76877.38;5066019;28;19935;-66
2022/10/17 10:15:32;;;;;;;;;;;;;;;-142.75;100.00;76879.34;5064434;28;19917;-65
2022/10/17 10:17:57;;;;;;;;;;;;;;;-142.75;100.00;76889.19;5067002;28;19932;-67
2022/10/17 10:20:24;;;;;;;;;;;;;;;-142.75;100.00;76895.09;5066514;28;20335;-66
2022/10/17 10:23:08;;;;;;;;;;;;;;;-142.75;100.00;76893.13;5068964;28;20051;-67
2022/10/17 10:25:34;;;;;;;;;;;;;;;-142.75;100.00;76893.13;5074089;28;19925;-66
2022/10/17 10:27:59;;;;;;;;;;;;;;;-142.75;100.00;76910.84;5069498;28;19916;-65
2022/10/17 10:30:27;;;;;;;;;;;;;;;-142.75;100.00;76901.00;5070069;28;20421;-66
2022/10/17 10:32:52;;;;;;;;;;;;;;;-142.75;100.00;76924.63;5070333;28;19917;-66
2022/10/17 10:35:18;;;;;;;;;;;;;;;-142.75;100.00;76922.66;5071370;28;19978;-66
2022/10/17 10:37:45;;;;;;;;;;;;;;;-142.75;100.00;76924.63;5070443;28;20019;-66
2022/10/17 10:40:17;;;;;;;;;;;;;;;-142.75;100.00;76938.41;5071007;28;19922;-65
2022/10/17 10:42:45;;;;;;;;;;;;;;;-142.75;100.00;76942.34;5087788;28;19965;-66
2022/10/17 10:45:15;;;;;;;;;;;;;;;-142.75;100.00;76944.31;5090533;28;19939;-66
2022/10/17 10:47:48;;;;;;;;;;;;;;;-142.75;100.00;76940.38;5090232;28;19916;-66
2022/10/17 10:50:28;;;;;;;;;;;;;;;-142.75;100.00;76944.31;5090253;28;19924;-66
2022/10/17 10:53:11;;;;;;;;;;;;;;;-142.75;100.00;76944.31;5090384;28;20336;-65
2022/10/17 10:55:41;;;;;;;;;;;;;;;-142.75;100.00;76940.38;5090955;28;19952;-66
2022/10/17 10:58:21;;;;;;;;;;;;;;;-142.75;100.00;76942.34;5089366;28;19920;-67
2022/10/17 11:00:48;;;;;;;;;;;;;;;-142.75;100.00;76960.06;5090750;28;20355;-66
2022/10/17 11:03:28;;;;;;;;;;;;;;;-142.75;100.00;76938.41;5088342;28;19924;-64
2022/10/17 11:05:59;;;;;;;;;;;;;;;-142.75;100.00;76948.25;5091034;28;20382;-66
2022/10/17 11:08:43;;;;;;;;;;;;;;;-142.75;100.00;76944.31;5088327;28;20388;-65
2022/10/17 11:11:16;;;;;;;;;;;;;;;-142.75;100.00;76948.25;5082783;28;19966;-65
2022/10/17 11:14:02;;;;;;;;;;;;;;;-142.75;100.00;76967.94;5087610;28;19920;-65
2022/10/17 11:16:34;;;;;;;;;;;;;;;-142.75;100.00;76975.81;5088640;28;19922;-65
2022/10/17 11:19:18;;;;;;;;;;;;;;;-142.75;100.00;76962.03;5090250;28;19916;-66
2022/10/17 11:22:02;;;;;;;;;;;;;;;-142.75;100.00;76971.88;5089040;28;19916;-65
2022/10/17 11:24:31;;;;;;;;;;;;;;;-142.75;100.00;76971.88;5090044;28;19920;-65
2022/10/17 11:27:01;;;;;;;;;;;;;;;-142.75;100.00;76979.75;5087924;28;20397;-66
2022/10/17 11:29:28;;;;;;;;;;;;;;;-142.75;100.00;76987.63;5069261;28;20397;-66
2022/10/17 11:31:55;;;;;;;;;;;;;;;-142.75;100.00;76995.50;5094161;22;20394;-66
2022/10/17 11:34:24;;;;;;;;;;;;;;;-142.75;100.00;76979.75;5070461;28;19920;-66
2022/10/17 11:36:51;;;;;;;;;;;;;;;-142.75;100.00;76979.75;5072301;28;19913;-66
2022/10/17 11:39:22;;;;;;;;;;;;;;;-142.75;100.00;76993.53;5072248;28;19978;-67
2022/10/17 11:41:50;;;;;;;;;;;;;;;-142.75;100.00;76993.53;5057717;28;19917;-68
2022/10/17 11:44:44;;;;;;;;;;;;;;;-142.75;100.00;76995.50;5052430;28;20539;-69
2022/10/17 11:47:12;;;;;;;;;;;;;;;-142.75;100.00;77001.41;5053981;28;19917;-69
2022/10/17 11:49:39;;;;;;;;;;;;;;;-142.75;100.00;76985.66;5054247;28;19923;-69
2022/10/17 11:52:19;;;;;;;;;;;;;;;-142.75;100.00;76987.63;5071715;28;20422;-68
2022/10/17 11:54:49;;;;;;;;;;;;;;;-142.75;100.00;76975.81;5072241;28;19917;-68
2022/10/17 11:57:46;;;;;;;;;;;;;;;-142.75;100.00;76973.84;5071605;28;19952;-68
2022/10/17 12:00:38;;;;;;;;;;;;;;;-142.75;100.00;76979.75;5027134;28;20406;-68
2022/10/17 12:03:09;;;;;;;;;;;;;;;-142.75;100.00;76971.88;5040787;28;20386;-68
2022/10/17 12:05:40;;;;;;;;;;;;;;;-142.75;100.00;76956.13;5072249;28;20286;-68
2022/10/17 12:08:11;;;;;;;;;;;;;;;-142.75;100.00;76956.13;5071639;28;19927;-68
2022/10/17 12:10:47;;;;;;;;;;;;;;;-142.75;100.00;76952.19;5071594;28;19916;-68
2022/10/17 12:13:27;;;;;;;;;;;;;;;-142.75;100.00;76960.06;5053545;28;20445;-68
2022/10/17 12:15:53;;;;;;;;;;;;;;;-142.75;100.00;76958.09;5071658;28;19917;-69
2022/10/17 12:18:18;;;;;;;;;;;;;;;-142.75;100.00;76952.19;5070820;28;20397;-69
2022/10/17 12:20:54;;;;;;;;;;;;;;;-142.75;100.00;76956.13;5071342;28;20463;-68
2022/10/17 12:23:22;;;;;;;;;;;;;;;-142.75;100.00;76954.16;5071418;28;19921;-68